sensor_id;sensor_type;location;lat;lon;timestamp;P1;durP1;ratioP1;P2;durP2;ratioP2
36211;SDS011;22247;48.586;13.492;2022-12-18T00:00:47;37.10;;;14.15;;
36211;SDS011;22247;48.586;13.492;2022-12-18T00:03:14;37.72;;;12.77;;
36211;SDS011;22247;48.586;13.492;2022-12-18T00:05:46;35.13;;;13.60;;
36211;SDS011;22247;48.586;13.492;2022-12-18T00:08:16;41.50;;;15.00;;
36211;SDS011;22247;48.586;13.492;2022-12-18T00:10:44;42.63;;;15.23;;
36211;SDS011;22247;48.586;13.492;2022-12-18T00:13:10;47.47;;;17.73;;
36211;SDS011;22247;48.586;13.492;2022-12-18T00:15:37;40.72;;;14.18;;
36211;SDS011;22247;48.586;13.492;2022-12-18T00:18:03;41.63;;;15.35;;
36211;SDS011;22247;48.586;13.492;2022-12-18T00:20:32;48.90;;;15.50;;
36211;SDS011;22247;48.586;13.492;2022-12-18T00:23:06;38.47;;;14.77;;
36211;SDS011;22247;48.586;13.492;2022-12-18T00:25:33;38.70;;;14.88;;
36211;SDS011;22247;48.586;13.492;2022-12-18T00:27:59;40.85;;;15.88;;
36211;SDS011;22247;48.586;13.492;2022-12-18T00:30:28;44.15;;;15.30;;
36211;SDS011;22247;48.586;13.492;2022-12-18T00:32:56;41.60;;;16.88;;
36211;SDS011;22247;48.586;13.492;2022-12-18T00:35:24;43.65;;;14.25;;
36211;SDS011;22247;48.586;13.492;2022-12-18T00:37:50;42.65;;;14.57;;
36211;SDS011;22247;48.586;13.492;2022-12-18T00:40:16;47.78;;;16.13;;
36211;SDS011;22247;48.586;13.492;2022-12-18T00:42:42;42.50;;;15.48;;
36211;SDS011;22247;48.586;13.492;2022-12-18T00:45:26;45.70;;;15.30;;
36211;SDS011;22247;48.586;13.492;2022-12-18T00:47:53;44.38;;;15.75;;
36211;SDS011;22247;48.586;13.492;2022-12-18T00:50:20;42.03;;;15.48;;
36211;SDS011;22247;48.586;13.492;2022-12-18T00:52:49;45.47;;;14.45;;
36211;SDS011;22247;48.586;13.492;2022-12-18T00:55:15;39.13;;;15.82;;
36211;SDS011;22247;48.586;13.492;2022-12-18T00:57:43;47.65;;;15.35;;
36211;SDS011;22247;48.586;13.492;2022-12-18T01:00:10;41.00;;;15.38;;
36211;SDS011;22247;48.586;13.492;2022-12-18T01:02:38;47.25;;;16.63;;
36211;SDS011;22247;48.586;13.492;2022-12-18T01:05:05;46.83;;;16.48;;
36211;SDS011;22247;48.586;13.492;2022-12-18T01:07:31;41.20;;;14.82;;
36211;SDS011;22247;48.586;13.492;2022-12-18T01:09:57;40.28;;;13.93;;
36211;SDS011;22247;48.586;13.492;2022-12-18T01:12:23;40.92;;;15.00;;
36211;SDS011;22247;48.586;13.492;2022-12-18T01:14:49;56.00;;;16.63;;
36211;SDS011;22247;48.586;13.492;2022-12-18T01:17:15;51.08;;;16.50;;
36211;SDS011;22247;48.586;13.492;2022-12-18T01:19:40;46.50;;;15.13;;
36211;SDS011;22247;48.586;13.492;2022-12-18T01:22:06;43.92;;;14.88;;
36211;SDS011;22247;48.586;13.492;2022-12-18T01:24:35;47.10;;;16.00;;
36211;SDS011;22247;48.586;13.492;2022-12-18T01:27:05;57.60;;;18.23;;
36211;SDS011;22247;48.586;13.492;2022-12-18T01:29:33;58.05;;;18.08;;
36211;SDS011;22247;48.586;13.492;2022-12-18T01:32:01;50.33;;;18.10;;
36211;SDS011;22247;48.586;13.492;2022-12-18T01:34:29;57.65;;;18.45;;
36211;SDS011;22247;48.586;13.492;2022-12-18T01:36:59;48.50;;;16.05;;
36211;SDS011;22247;48.586;13.492;2022-12-18T01:39:30;45.05;;;13.30;;
36211;SDS011;22247;48.586;13.492;2022-12-18T01:42:01;47.70;;;16.55;;
36211;SDS011;22247;48.586;13.492;2022-12-18T01:47:18;48.63;;;16.30;;
36211;SDS011;22247;48.586;13.492;2022-12-18T01:49:45;42.20;;;15.05;;
36211;SDS011;22247;48.586;13.492;2022-12-18T01:52:13;45.50;;;16.05;;
36211;SDS011;22247;48.586;13.492;2022-12-18T01:54:40;47.47;;;14.90;;
36211;SDS011;22247;48.586;13.492;2022-12-18T01:57:06;48.75;;;17.58;;
36211;SDS011;22247;48.586;13.492;2022-12-18T01:59:34;51.78;;;17.20;;
36211;SDS011;22247;48.586;13.492;2022-12-18T02:02:04;43.30;;;15.27;;
36211;SDS011;22247;48.586;13.492;2022-12-18T02:04:31;42.15;;;14.40;;
36211;SDS011;22247;48.586;13.492;2022-12-18T02:07:08;42.35;;;14.77;;
36211;SDS011;22247;48.586;13.492;2022-12-18T02:09:44;44.97;;;15.77;;
36211;SDS011;22247;48.586;13.492;2022-12-18T02:12:18;43.42;;;16.20;;
36211;SDS011;22247;48.586;13.492;2022-12-18T02:15:06;51.60;;;16.48;;
36211;SDS011;22247;48.586;13.492;2022-12-18T02:18:07;51.83;;;16.23;;
36211;SDS011;22247;48.586;13.492;2022-12-18T02:28:40;44.13;;;13.52;;
36211;SDS011;22247;48.586;13.492;2022-12-18T02:31:11;44.00;;;14.40;;
36211;SDS011;22247;48.586;13.492;2022-12-18T02:33:44;45.50;;;15.82;;
36211;SDS011;22247;48.586;13.492;2022-12-18T02:36:15;44.47;;;14.30;;
36211;SDS011;22247;48.586;13.492;2022-12-18T02:38:43;43.40;;;15.30;;
36211;SDS011;22247;48.586;13.492;2022-12-18T02:41:13;46.55;;;15.35;;
36211;SDS011;22247;48.586;13.492;2022-12-18T02:43:45;37.63;;;14.43;;
36211;SDS011;22247;48.586;13.492;2022-12-18T02:46:37;37.67;;;12.98;;
36211;SDS011;22247;48.586;13.492;2022-12-18T02:57:34;33.72;;;11.60;;
36211;SDS011;22247;48.586;13.492;2022-12-18T03:00:07;37.38;;;11.98;;
36211;SDS011;22247;48.586;13.492;2022-12-18T03:02:39;39.03;;;12.32;;
36211;SDS011;22247;48.586;13.492;2022-12-18T03:07:39;43.15;;;13.18;;
36211;SDS011;22247;48.586;13.492;2022-12-18T03:10:45;30.83;;;13.23;;
36211;SDS011;22247;48.586;13.492;2022-12-18T03:13:20;36.05;;;14.70;;
36211;SDS011;22247;48.586;13.492;2022-12-18T03:15:52;40.55;;;13.73;;
36211;SDS011;22247;48.586;13.492;2022-12-18T03:18:25;37.63;;;13.65;;
36211;SDS011;22247;48.586;13.492;2022-12-18T03:20:58;38.47;;;12.85;;
36211;SDS011;22247;48.586;13.492;2022-12-18T03:23:30;35.83;;;12.48;;
36211;SDS011;22247;48.586;13.492;2022-12-18T03:26:01;48.30;;;14.48;;
36211;SDS011;22247;48.586;13.492;2022-12-18T03:28:30;32.92;;;12.35;;
36211;SDS011;22247;48.586;13.492;2022-12-18T03:31:03;39.20;;;13.38;;
36211;SDS011;22247;48.586;13.492;2022-12-18T03:33:42;40.65;;;11.77;;
36211;SDS011;22247;48.586;13.492;2022-12-18T03:36:11;34.95;;;11.70;;
36211;SDS011;22247;48.586;13.492;2022-12-18T03:38:36;38.80;;;12.52;;
36211;SDS011;22247;48.586;13.492;2022-12-18T03:41:05;38.30;;;12.98;;
36211;SDS011;22247;48.586;13.492;2022-12-18T03:52:01;39.47;;;12.90;;
36211;SDS011;22247;48.586;13.492;2022-12-18T03:54:41;41.17;;;14.02;;
36211;SDS011;22247;48.586;13.492;2022-12-18T03:57:18;31.63;;;11.07;;
36211;SDS011;22247;48.586;13.492;2022-12-18T03:59:45;33.55;;;11.50;;
36211;SDS011;22247;48.586;13.492;2022-12-18T04:02:13;30.33;;;10.77;;
36211;SDS011;22247;48.586;13.492;2022-12-18T04:04:41;37.55;;;12.10;;
36211;SDS011;22247;48.586;13.492;2022-12-18T04:07:07;40.97;;;14.13;;
36211;SDS011;22247;48.586;13.492;2022-12-18T04:09:33;39.90;;;13.60;;
36211;SDS011;22247;48.586;13.492;2022-12-18T04:12:00;42.30;;;13.07;;
36211;SDS011;22247;48.586;13.492;2022-12-18T04:14:28;32.35;;;10.80;;
36211;SDS011;22247;48.586;13.492;2022-12-18T04:16:53;39.20;;;12.05;;
36211;SDS011;22247;48.586;13.492;2022-12-18T04:19:21;39.90;;;12.60;;
36211;SDS011;22247;48.586;13.492;2022-12-18T04:21:47;37.95;;;12.45;;
36211;SDS011;22247;48.586;13.492;2022-12-18T04:24:12;31.88;;;10.68;;
36211;SDS011;22247;48.586;13.492;2022-12-18T04:26:40;41.97;;;12.95;;
36211;SDS011;22247;48.586;13.492;2022-12-18T04:29:11;35.42;;;11.80;;
36211;SDS011;22247;48.586;13.492;2022-12-18T04:31:37;39.17;;;11.73;;
36211;SDS011;22247;48.586;13.492;2022-12-18T04:34:04;32.90;;;12.18;;
36211;SDS011;22247;48.586;13.492;2022-12-18T04:36:30;47.70;;;13.45;;
36211;SDS011;22247;48.586;13.492;2022-12-18T04:38:56;40.22;;;13.80;;
36211;SDS011;22247;48.586;13.492;2022-12-18T04:41:22;45.03;;;13.55;;
36211;SDS011;22247;48.586;13.492;2022-12-18T04:43:50;38.67;;;12.95;;
36211;SDS011;22247;48.586;13.492;2022-12-18T04:46:18;39.95;;;12.18;;
36211;SDS011;22247;48.586;13.492;2022-12-18T04:48:45;41.92;;;12.60;;
36211;SDS011;22247;48.586;13.492;2022-12-18T04:51:15;44.78;;;14.35;;
36211;SDS011;22247;48.586;13.492;2022-12-18T04:53:43;51.38;;;13.05;;
36211;SDS011;22247;48.586;13.492;2022-12-18T04:56:10;45.10;;;15.25;;
36211;SDS011;22247;48.586;13.492;2022-12-18T04:58:38;46.75;;;16.35;;
36211;SDS011;22247;48.586;13.492;2022-12-18T05:01:05;49.85;;;13.15;;
36211;SDS011;22247;48.586;13.492;2022-12-18T05:03:32;44.95;;;13.93;;
36211;SDS011;22247;48.586;13.492;2022-12-18T05:05:58;54.60;;;15.93;;
36211;SDS011;22247;48.586;13.492;2022-12-18T05:08:27;52.80;;;14.48;;
36211;SDS011;22247;48.586;13.492;2022-12-18T05:11:09;56.83;;;15.85;;
36211;SDS011;22247;48.586;13.492;2022-12-18T05:13:36;48.22;;;14.77;;
36211;SDS011;22247;48.586;13.492;2022-12-18T05:16:05;45.75;;;13.63;;
36211;SDS011;22247;48.586;13.492;2022-12-18T05:18:31;43.15;;;11.95;;
36211;SDS011;22247;48.586;13.492;2022-12-18T05:20:57;46.25;;;15.13;;
36211;SDS011;22247;48.586;13.492;2022-12-18T05:23:23;46.90;;;13.45;;
36211;SDS011;22247;48.586;13.492;2022-12-18T05:25:51;54.45;;;14.80;;
36211;SDS011;22247;48.586;13.492;2022-12-18T05:28:20;46.00;;;14.05;;
36211;SDS011;22247;48.586;13.492;2022-12-18T05:30:50;54.60;;;15.65;;
36211;SDS011;22247;48.586;13.492;2022-12-18T05:33:16;37.38;;;13.82;;
36211;SDS011;22247;48.586;13.492;2022-12-18T05:35:49;49.78;;;14.48;;
36211;SDS011;22247;48.586;13.492;2022-12-18T05:38:18;42.25;;;12.48;;
36211;SDS011;22247;48.586;13.492;2022-12-18T05:40:47;49.17;;;13.80;;
36211;SDS011;22247;48.586;13.492;2022-12-18T05:43:13;46.97;;;14.70;;
36211;SDS011;22247;48.586;13.492;2022-12-18T05:45:39;34.30;;;10.98;;
36211;SDS011;22247;48.586;13.492;2022-12-18T05:48:08;38.65;;;12.93;;
36211;SDS011;22247;48.586;13.492;2022-12-18T05:50:38;45.50;;;11.88;;
36211;SDS011;22247;48.586;13.492;2022-12-18T05:53:07;32.83;;;12.55;;
36211;SDS011;22247;48.586;13.492;2022-12-18T05:55:33;35.75;;;12.55;;
36211;SDS011;22247;48.586;13.492;2022-12-18T05:58:02;43.50;;;12.85;;
36211;SDS011;22247;48.586;13.492;2022-12-18T06:00:29;37.83;;;13.57;;
36211;SDS011;22247;48.586;13.492;2022-12-18T06:02:55;35.78;;;11.27;;
36211;SDS011;22247;48.586;13.492;2022-12-18T06:05:23;35.42;;;11.63;;
36211;SDS011;22247;48.586;13.492;2022-12-18T06:07:49;34.53;;;12.77;;
36211;SDS011;22247;48.586;13.492;2022-12-18T06:10:18;34.78;;;12.20;;
36211;SDS011;22247;48.586;13.492;2022-12-18T06:12:44;43.75;;;12.18;;
36211;SDS011;22247;48.586;13.492;2022-12-18T06:15:10;39.65;;;11.90;;
36211;SDS011;22247;48.586;13.492;2022-12-18T06:17:36;32.22;;;11.20;;
36211;SDS011;22247;48.586;13.492;2022-12-18T06:20:03;36.97;;;10.77;;
36211;SDS011;22247;48.586;13.492;2022-12-18T06:22:32;36.55;;;11.80;;
36211;SDS011;22247;48.586;13.492;2022-12-18T06:24:59;43.97;;;10.43;;
36211;SDS011;22247;48.586;13.492;2022-12-18T06:27:25;35.20;;;11.27;;
36211;SDS011;22247;48.586;13.492;2022-12-18T06:29:51;35.63;;;12.77;;
36211;SDS011;22247;48.586;13.492;2022-12-18T06:32:20;44.83;;;11.85;;
36211;SDS011;22247;48.586;13.492;2022-12-18T06:34:49;38.63;;;13.43;;
36211;SDS011;22247;48.586;13.492;2022-12-18T06:37:15;35.33;;;12.75;;
36211;SDS011;22247;48.586;13.492;2022-12-18T06:39:46;41.38;;;13.00;;
36211;SDS011;22247;48.586;13.492;2022-12-18T06:42:12;39.58;;;11.50;;
36211;SDS011;22247;48.586;13.492;2022-12-18T06:44:38;44.03;;;12.52;;
36211;SDS011;22247;48.586;13.492;2022-12-18T06:47:07;69.70;;;12.57;;
36211;SDS011;22247;48.586;13.492;2022-12-18T06:49:33;43.50;;;11.65;;
36211;SDS011;22247;48.586;13.492;2022-12-18T06:52:01;38.85;;;11.20;;
36211;SDS011;22247;48.586;13.492;2022-12-18T06:54:30;37.67;;;11.95;;
36211;SDS011;22247;48.586;13.492;2022-12-18T06:56:56;34.88;;;13.00;;
36211;SDS011;22247;48.586;13.492;2022-12-18T06:59:22;42.30;;;12.82;;
36211;SDS011;22247;48.586;13.492;2022-12-18T07:01:48;33.15;;;11.27;;
36211;SDS011;22247;48.586;13.492;2022-12-18T07:04:14;34.10;;;10.45;;
36211;SDS011;22247;48.586;13.492;2022-12-18T07:06:40;41.20;;;11.40;;
36211;SDS011;22247;48.586;13.492;2022-12-18T07:09:06;56.80;;;13.82;;
36211;SDS011;22247;48.586;13.492;2022-12-18T07:11:32;50.63;;;13.57;;
36211;SDS011;22247;48.586;13.492;2022-12-18T07:13:59;59.13;;;12.68;;
36211;SDS011;22247;48.586;13.492;2022-12-18T07:16:25;44.22;;;12.15;;
36211;SDS011;22247;48.586;13.492;2022-12-18T07:18:54;39.45;;;12.80;;
36211;SDS011;22247;48.586;13.492;2022-12-18T07:21:21;41.90;;;12.43;;
36211;SDS011;22247;48.586;13.492;2022-12-18T07:23:50;43.60;;;13.75;;
36211;SDS011;22247;48.586;13.492;2022-12-18T07:26:17;39.50;;;12.75;;
36211;SDS011;22247;48.586;13.492;2022-12-18T07:28:46;44.53;;;13.10;;
36211;SDS011;22247;48.586;13.492;2022-12-18T07:31:19;33.67;;;11.20;;
36211;SDS011;22247;48.586;13.492;2022-12-18T07:33:45;39.67;;;11.45;;
36211;SDS011;22247;48.586;13.492;2022-12-18T07:36:12;37.20;;;12.02;;
36211;SDS011;22247;48.586;13.492;2022-12-18T07:38:38;32.40;;;11.75;;
36211;SDS011;22247;48.586;13.492;2022-12-18T07:41:09;35.95;;;11.40;;
36211;SDS011;22247;48.586;13.492;2022-12-18T07:43:35;34.90;;;11.82;;
36211;SDS011;22247;48.586;13.492;2022-12-18T07:46:04;39.97;;;11.05;;
36211;SDS011;22247;48.586;13.492;2022-12-18T07:48:32;33.20;;;12.40;;
36211;SDS011;22247;48.586;13.492;2022-12-18T07:50:59;30.42;;;10.27;;
36211;SDS011;22247;48.586;13.492;2022-12-18T07:53:29;32.88;;;10.43;;
36211;SDS011;22247;48.586;13.492;2022-12-18T07:55:59;31.35;;;10.75;;
36211;SDS011;22247;48.586;13.492;2022-12-18T07:58:25;30.85;;;10.40;;
36211;SDS011;22247;48.586;13.492;2022-12-18T08:00:51;33.13;;;9.40;;
36211;SDS011;22247;48.586;13.492;2022-12-18T08:03:20;32.55;;;11.88;;
36211;SDS011;22247;48.586;13.492;2022-12-18T08:05:46;37.90;;;11.63;;
36211;SDS011;22247;48.586;13.492;2022-12-18T08:08:15;38.72;;;11.90;;
36211;SDS011;22247;48.586;13.492;2022-12-18T08:10:41;34.03;;;11.40;;
36211;SDS011;22247;48.586;13.492;2022-12-18T08:13:07;40.80;;;12.43;;
36211;SDS011;22247;48.586;13.492;2022-12-18T08:15:33;29.50;;;9.63;;
36211;SDS011;22247;48.586;13.492;2022-12-18T08:17:59;28.48;;;10.30;;
36211;SDS011;22247;48.586;13.492;2022-12-18T08:20:25;35.08;;;10.95;;
36211;SDS011;22247;48.586;13.492;2022-12-18T08:22:51;28.75;;;10.48;;
36211;SDS011;22247;48.586;13.492;2022-12-18T08:25:17;33.67;;;10.93;;
36211;SDS011;22247;48.586;13.492;2022-12-18T08:27:43;39.58;;;12.48;;
36211;SDS011;22247;48.586;13.492;2022-12-18T08:30:10;33.85;;;10.85;;
36211;SDS011;22247;48.586;13.492;2022-12-18T08:32:36;24.15;;;8.68;;
36211;SDS011;22247;48.586;13.492;2022-12-18T08:35:02;23.75;;;9.93;;
36211;SDS011;22247;48.586;13.492;2022-12-18T08:37:31;30.13;;;9.55;;
36211;SDS011;22247;48.586;13.492;2022-12-18T08:39:57;26.63;;;10.30;;
36211;SDS011;22247;48.586;13.492;2022-12-18T08:42:23;27.75;;;8.90;;
36211;SDS011;22247;48.586;13.492;2022-12-18T08:45:10;27.67;;;8.73;;
36211;SDS011;22247;48.586;13.492;2022-12-18T08:47:36;24.60;;;8.65;;
36211;SDS011;22247;48.586;13.492;2022-12-18T08:50:02;25.05;;;8.68;;
36211;SDS011;22247;48.586;13.492;2022-12-18T08:52:30;27.80;;;9.90;;
36211;SDS011;22247;48.586;13.492;2022-12-18T08:54:57;28.50;;;10.35;;
36211;SDS011;22247;48.586;13.492;2022-12-18T08:57:25;26.10;;;7.90;;
36211;SDS011;22247;48.586;13.492;2022-12-18T08:59:51;30.23;;;9.85;;
36211;SDS011;22247;48.586;13.492;2022-12-18T09:02:17;25.85;;;9.15;;
36211;SDS011;22247;48.586;13.492;2022-12-18T09:04:43;27.15;;;11.32;;
36211;SDS011;22247;48.586;13.492;2022-12-18T09:07:14;32.80;;;10.95;;
36211;SDS011;22247;48.586;13.492;2022-12-18T09:09:43;28.27;;;9.65;;
36211;SDS011;22247;48.586;13.492;2022-12-18T09:12:13;26.33;;;11.63;;
36211;SDS011;22247;48.586;13.492;2022-12-18T09:14:39;21.88;;;7.70;;
36211;SDS011;22247;48.586;13.492;2022-12-18T09:17:05;24.30;;;9.18;;
36211;SDS011;22247;48.586;13.492;2022-12-18T09:19:32;25.08;;;8.18;;
36211;SDS011;22247;48.586;13.492;2022-12-18T09:22:06;26.27;;;9.00;;
36211;SDS011;22247;48.586;13.492;2022-12-18T09:24:32;23.42;;;8.23;;
36211;SDS011;22247;48.586;13.492;2022-12-18T09:26:58;25.92;;;8.00;;
36211;SDS011;22247;48.586;13.492;2022-12-18T09:29:25;23.23;;;8.85;;
36211;SDS011;22247;48.586;13.492;2022-12-18T09:31:51;24.50;;;9.32;;
36211;SDS011;22247;48.586;13.492;2022-12-18T09:34:17;24.63;;;10.35;;
36211;SDS011;22247;48.586;13.492;2022-12-18T09:36:45;28.48;;;9.57;;
36211;SDS011;22247;48.586;13.492;2022-12-18T09:39:12;26.00;;;9.07;;
36211;SDS011;22247;48.586;13.492;2022-12-18T09:41:51;25.85;;;9.30;;
36211;SDS011;22247;48.586;13.492;2022-12-18T09:49:43;34.22;;;11.80;;
36211;SDS011;22247;48.586;13.492;2022-12-18T09:54:38;32.30;;;12.43;;
36211;SDS011;22247;48.586;13.492;2022-12-18T09:57:04;37.53;;;10.68;;
36211;SDS011;22247;48.586;13.492;2022-12-18T09:59:33;28.73;;;9.70;;
36211;SDS011;22247;48.586;13.492;2022-12-18T10:04:31;25.00;;;8.07;;
36211;SDS011;22247;48.586;13.492;2022-12-18T10:07:06;26.85;;;10.82;;
36211;SDS011;22247;48.586;13.492;2022-12-18T10:19:56;35.63;;;11.45;;
36211;SDS011;22247;48.586;13.492;2022-12-18T10:27:41;35.13;;;12.63;;
36211;SDS011;22247;48.586;13.492;2022-12-18T10:30:19;26.52;;;11.40;;
36211;SDS011;22247;48.586;13.492;2022-12-18T10:32:46;38.53;;;12.40;;
36211;SDS011;22247;48.586;13.492;2022-12-18T10:35:25;28.67;;;12.18;;
36211;SDS011;22247;48.586;13.492;2022-12-18T10:38:28;30.95;;;11.88;;
36211;SDS011;22247;48.586;13.492;2022-12-18T10:51:20;28.73;;;10.80;;
36211;SDS011;22247;48.586;13.492;2022-12-18T10:53:51;32.97;;;11.30;;
36211;SDS011;22247;48.586;13.492;2022-12-18T10:56:19;28.75;;;11.57;;
36211;SDS011;22247;48.586;13.492;2022-12-18T10:58:54;26.83;;;10.05;;
36211;SDS011;22247;48.586;13.492;2022-12-18T11:01:21;34.58;;;12.05;;
36211;SDS011;22247;48.586;13.492;2022-12-18T11:06:17;27.75;;;10.90;;
36211;SDS011;22247;48.586;13.492;2022-12-18T11:11:35;32.08;;;12.45;;
36211;SDS011;22247;48.586;13.492;2022-12-18T11:14:02;31.92;;;12.93;;
36211;SDS011;22247;48.586;13.492;2022-12-18T11:16:46;29.95;;;11.43;;
36211;SDS011;22247;48.586;13.492;2022-12-18T11:22:53;28.90;;;11.50;;
36211;SDS011;22247;48.586;13.492;2022-12-18T11:27:38;28.85;;;11.10;;
36211;SDS011;22247;48.586;13.492;2022-12-18T11:30:25;35.75;;;12.23;;
36211;SDS011;22247;48.586;13.492;2022-12-18T11:32:52;26.77;;;11.32;;
36211;SDS011;22247;48.586;13.492;2022-12-18T11:35:38;30.38;;;13.48;;
36211;SDS011;22247;48.586;13.492;2022-12-18T11:38:09;36.65;;;14.95;;
36211;SDS011;22247;48.586;13.492;2022-12-18T11:40:51;28.33;;;12.30;;
36211;SDS011;22247;48.586;13.492;2022-12-18T11:43:28;35.83;;;12.88;;
36211;SDS011;22247;48.586;13.492;2022-12-18T11:46:12;35.13;;;13.10;;
36211;SDS011;22247;48.586;13.492;2022-12-18T11:49:01;29.15;;;11.57;;
36211;SDS011;22247;48.586;13.492;2022-12-18T11:51:41;27.00;;;10.02;;
36211;SDS011;22247;48.586;13.492;2022-12-18T11:54:14;26.20;;;10.32;;
36211;SDS011;22247;48.586;13.492;2022-12-18T11:56:51;30.83;;;10.63;;
36211;SDS011;22247;48.586;13.492;2022-12-18T12:15:45;24.33;;;9.15;;
36211;SDS011;22247;48.586;13.492;2022-12-18T12:25:57;19.92;;;9.30;;
36211;SDS011;22247;48.586;13.492;2022-12-18T12:28:55;21.38;;;9.38;;
36211;SDS011;22247;48.586;13.492;2022-12-18T12:36:58;24.52;;;10.70;;
36211;SDS011;22247;48.586;13.492;2022-12-18T12:39:33;29.60;;;11.77;;
36211;SDS011;22247;48.586;13.492;2022-12-18T12:42:05;32.25;;;12.38;;
36211;SDS011;22247;48.586;13.492;2022-12-18T12:45:13;26.52;;;10.93;;
36211;SDS011;22247;48.586;13.492;2022-12-18T12:47:49;23.42;;;10.88;;
36211;SDS011;22247;48.586;13.492;2022-12-18T12:50:17;28.00;;;10.75;;
36211;SDS011;22247;48.586;13.492;2022-12-18T12:52:52;25.40;;;10.60;;
36211;SDS011;22247;48.586;13.492;2022-12-18T12:55:25;30.23;;;11.80;;
36211;SDS011;22247;48.586;13.492;2022-12-18T13:00:45;25.25;;;10.27;;
36211;SDS011;22247;48.586;13.492;2022-12-18T13:05:54;32.10;;;11.65;;
36211;SDS011;22247;48.586;13.492;2022-12-18T13:08:27;25.80;;;10.77;;
36211;SDS011;22247;48.586;13.492;2022-12-18T13:10:57;25.80;;;11.90;;
36211;SDS011;22247;48.586;13.492;2022-12-18T13:16:20;31.15;;;12.50;;
36211;SDS011;22247;48.586;13.492;2022-12-18T13:18:53;30.75;;;11.70;;
36211;SDS011;22247;48.586;13.492;2022-12-18T13:21:29;24.63;;;10.98;;
36211;SDS011;22247;48.586;13.492;2022-12-18T13:23:57;27.38;;;11.57;;
36211;SDS011;22247;48.586;13.492;2022-12-18T13:26:54;26.30;;;12.05;;
36211;SDS011;22247;48.586;13.492;2022-12-18T13:32:24;34.28;;;12.27;;
36211;SDS011;22247;48.586;13.492;2022-12-18T13:37:55;29.50;;;11.35;;
36211;SDS011;22247;48.586;13.492;2022-12-18T13:48:31;30.75;;;12.20;;
36211;SDS011;22247;48.586;13.492;2022-12-18T13:51:02;32.08;;;12.52;;
36211;SDS011;22247;48.586;13.492;2022-12-18T13:56:21;30.88;;;12.98;;
36211;SDS011;22247;48.586;13.492;2022-12-18T14:04:22;33.83;;;12.95;;
36211;SDS011;22247;48.586;13.492;2022-12-18T14:06:50;27.60;;;11.55;;
36211;SDS011;22247;48.586;13.492;2022-12-18T14:09:24;27.45;;;11.55;;
36211;SDS011;22247;48.586;13.492;2022-12-18T14:11:52;30.58;;;12.10;;
36211;SDS011;22247;48.586;13.492;2022-12-18T14:14:41;36.20;;;13.82;;
36211;SDS011;22247;48.586;13.492;2022-12-18T14:17:14;31.50;;;13.40;;
36211;SDS011;22247;48.586;13.492;2022-12-18T14:19:44;32.60;;;14.25;;
36211;SDS011;22247;48.586;13.492;2022-12-18T14:22:23;35.60;;;13.52;;
36211;SDS011;22247;48.586;13.492;2022-12-18T14:27:45;36.53;;;13.27;;
36211;SDS011;22247;48.586;13.492;2022-12-18T14:33:26;32.22;;;15.05;;
36211;SDS011;22247;48.586;13.492;2022-12-18T14:35:57;37.90;;;14.88;;
36211;SDS011;22247;48.586;13.492;2022-12-18T14:41:05;37.15;;;15.45;;
36211;SDS011;22247;48.586;13.492;2022-12-18T14:43:34;41.83;;;15.65;;
36211;SDS011;22247;48.586;13.492;2022-12-18T14:46:04;39.60;;;15.68;;
36211;SDS011;22247;48.586;13.492;2022-12-18T14:48:50;34.72;;;13.93;;
36211;SDS011;22247;48.586;13.492;2022-12-18T14:51:20;42.28;;;16.35;;
36211;SDS011;22247;48.586;13.492;2022-12-18T14:53:48;43.33;;;15.88;;
36211;SDS011;22247;48.586;13.492;2022-12-18T14:58:47;32.05;;;15.35;;
36211;SDS011;22247;48.586;13.492;2022-12-18T15:01:21;34.70;;;14.88;;
36211;SDS011;22247;48.586;13.492;2022-12-18T15:03:52;31.42;;;13.65;;
36211;SDS011;22247;48.586;13.492;2022-12-18T15:06:26;34.00;;;13.82;;
36211;SDS011;22247;48.586;13.492;2022-12-18T15:08:52;32.70;;;13.25;;
36211;SDS011;22247;48.586;13.492;2022-12-18T15:11:28;34.47;;;15.48;;
36211;SDS011;22247;48.586;13.492;2022-12-18T15:13:59;39.10;;;15.23;;
36211;SDS011;22247;48.586;13.492;2022-12-18T15:16:26;31.27;;;14.00;;
36211;SDS011;22247;48.586;13.492;2022-12-18T15:18:52;32.28;;;13.77;;
36211;SDS011;22247;48.586;13.492;2022-12-18T15:21:20;35.15;;;16.23;;
36211;SDS011;22247;48.586;13.492;2022-12-18T15:23:50;45.17;;;18.33;;
36211;SDS011;22247;48.586;13.492;2022-12-18T15:26:19;48.97;;;19.60;;
36211;SDS011;22247;48.586;13.492;2022-12-18T15:36:17;56.88;;;20.25;;
36211;SDS011;22247;48.586;13.492;2022-12-18T15:38:46;52.75;;;17.75;;
36211;SDS011;22247;48.586;13.492;2022-12-18T15:41:14;60.65;;;20.95;;
36211;SDS011;22247;48.586;13.492;2022-12-18T15:43:43;48.30;;;18.17;;
36211;SDS011;22247;48.586;13.492;2022-12-18T15:46:14;46.53;;;16.40;;
36211;SDS011;22247;48.586;13.492;2022-12-18T15:48:52;50.28;;;16.58;;
36211;SDS011;22247;48.586;13.492;2022-12-18T15:51:24;44.00;;;15.48;;
36211;SDS011;22247;48.586;13.492;2022-12-18T15:53:55;39.22;;;14.48;;
36211;SDS011;22247;48.586;13.492;2022-12-18T15:56:23;35.70;;;14.55;;
36211;SDS011;22247;48.586;13.492;2022-12-18T15:59:09;44.40;;;16.42;;
36211;SDS011;22247;48.586;13.492;2022-12-18T16:01:46;34.75;;;14.10;;
36211;SDS011;22247;48.586;13.492;2022-12-18T16:04:13;41.47;;;15.30;;
36211;SDS011;22247;48.586;13.492;2022-12-18T16:06:41;34.17;;;13.15;;
36211;SDS011;22247;48.586;13.492;2022-12-18T16:09:07;34.25;;;13.73;;
36211;SDS011;22247;48.586;13.492;2022-12-18T16:11:39;44.80;;;15.35;;
36211;SDS011;22247;48.586;13.492;2022-12-18T16:14:33;54.25;;;18.45;;
36211;SDS011;22247;48.586;13.492;2022-12-18T16:17:03;44.60;;;16.30;;
36211;SDS011;22247;48.586;13.492;2022-12-18T16:19:29;58.78;;;17.60;;
36211;SDS011;22247;48.586;13.492;2022-12-18T16:21:56;43.40;;;15.50;;
36211;SDS011;22247;48.586;13.492;2022-12-18T16:24:25;48.08;;;14.40;;
36211;SDS011;22247;48.586;13.492;2022-12-18T16:26:55;62.47;;;19.65;;
36211;SDS011;22247;48.586;13.492;2022-12-18T16:29:22;92.63;;;25.52;;
36211;SDS011;22247;48.586;13.492;2022-12-18T16:31:52;89.80;;;28.60;;
36211;SDS011;22247;48.586;13.492;2022-12-18T16:34:25;68.57;;;23.52;;
36211;SDS011;22247;48.586;13.492;2022-12-18T16:36:53;48.13;;;16.83;;
36211;SDS011;22247;48.586;13.492;2022-12-18T16:39:19;44.47;;;16.30;;
36211;SDS011;22247;48.586;13.492;2022-12-18T16:41:46;37.92;;;13.38;;
36211;SDS011;22247;48.586;13.492;2022-12-18T16:44:17;38.50;;;13.73;;
36211;SDS011;22247;48.586;13.492;2022-12-18T16:46:46;41.03;;;15.30;;
36211;SDS011;22247;48.586;13.492;2022-12-18T16:49:13;33.65;;;13.85;;
36211;SDS011;22247;48.586;13.492;2022-12-18T16:51:39;33.83;;;13.32;;
36211;SDS011;22247;48.586;13.492;2022-12-18T16:54:05;31.55;;;13.18;;
36211;SDS011;22247;48.586;13.492;2022-12-18T16:56:32;31.10;;;13.98;;
36211;SDS011;22247;48.586;13.492;2022-12-18T16:58:59;35.80;;;17.10;;
36211;SDS011;22247;48.586;13.492;2022-12-18T17:01:25;40.47;;;16.58;;
36211;SDS011;22247;48.586;13.492;2022-12-18T17:03:54;49.92;;;20.02;;